createdAt,value
2018-05-06T00:02:10.955Z,50.70
2018-05-06T00:04:39.997Z,50.80
2018-05-06T00:07:08.387Z,50.80
2018-05-06T00:09:36.649Z,50.70
2018-05-06T00:12:04.922Z,50.50
2018-05-06T00:14:33.235Z,50.50
2018-05-06T00:17:01.581Z,50.50
2018-05-06T00:19:29.976Z,50.50
2018-05-06T00:21:58.333Z,50.50
2018-05-06T00:24:26.775Z,50.40
2018-05-06T00:26:55.032Z,50.50
2018-05-06T00:29:23.494Z,50.50
2018-05-06T00:31:51.757Z,50.50
2018-05-06T00:34:20.245Z,50.40
2018-05-06T00:36:48.659Z,50.40
2018-05-06T00:39:17.176Z,50.50
2018-05-06T00:41:45.438Z,50.40
2018-05-06T00:44:14.062Z,50.50
2018-05-06T00:46:42.454Z,50.30
2018-05-06T00:49:10.734Z,50.20
2018-05-06T00:51:39.801Z,50.20
2018-05-06T00:54:19.874Z,50.20
2018-05-06T00:56:48.150Z,50.10
2018-05-06T00:59:16.427Z,50.80
2018-05-06T01:01:45.274Z,50.20
2018-05-06T01:04:14.302Z,50.20
2018-05-06T01:06:42.633Z,50.20
2018-05-06T01:09:11.195Z,50.00
2018-05-06T01:11:39.449Z,50.10
2018-05-06T01:14:08.127Z,50.10
2018-05-06T01:16:36.514Z,50.00
2018-05-06T01:19:04.791Z,50.00
2018-05-06T01:21:33.570Z,50.10
2018-05-06T01:24:01.984Z,50.10
2018-05-06T01:26:30.350Z,50.00
2018-05-06T01:28:58.706Z,50.10
2018-05-06T01:31:27.366Z,50.20
2018-05-06T01:33:55.714Z,50.00
2018-05-06T01:36:24.003Z,50.00
2018-05-06T01:38:52.474Z,49.90
2018-05-06T01:41:20.914Z,50.00
2018-05-06T01:43:49.298Z,49.50
2018-05-06T01:46:17.630Z,49.90
2018-05-06T01:48:46.682Z,50.00
2018-05-06T01:51:15.101Z,50.00
2018-05-06T01:53:43.371Z,50.00
2018-05-06T01:56:11.756Z,50.00
2018-05-06T01:58:40.789Z,50.10
2018-05-06T02:01:09.133Z,50.00
2018-05-06T02:03:37.304Z,49.90
2018-05-06T02:06:05.667Z,49.90
2018-05-06T02:08:33.993Z,49.80
2018-05-06T02:11:02.427Z,49.90
2018-05-06T02:13:30.778Z,49.90
2018-05-06T02:15:59.093Z,49.80
2018-05-06T02:18:27.561Z,49.70
2018-05-06T02:20:55.844Z,49.80
2018-05-06T02:23:24.270Z,49.70
2018-05-06T02:25:52.654Z,49.70
2018-05-06T02:28:21.346Z,49.70
2018-05-06T02:30:49.730Z,49.60
2018-05-06T02:33:18.070Z,49.70
2018-05-06T02:35:46.423Z,49.70
2018-05-06T02:38:15.095Z,49.70
2018-05-06T02:40:43.368Z,49.70
2018-05-06T02:43:11.922Z,49.60
2018-05-06T02:45:40.309Z,49.70
2018-05-06T02:48:08.570Z,49.60
2018-05-06T02:50:36.866Z,49.60
2018-05-06T02:53:05.440Z,49.60
2018-05-06T02:55:34.439Z,49.60
2018-05-06T02:58:02.801Z,49.50
2018-05-06T03:00:31.510Z,49.40
2018-05-06T03:02:59.915Z,49.50
2018-05-06T03:05:28.257Z,49.50
2018-05-06T03:07:56.906Z,49.50
2018-05-06T03:10:25.570Z,49.40
2018-05-06T03:12:54.021Z,49.50
2018-05-06T03:15:22.334Z,49.30
2018-05-06T03:17:51.073Z,49.40
2018-05-06T03:20:19.498Z,49.30
2018-05-06T03:22:47.780Z,49.30
2018-05-06T03:25:16.163Z,49.30
2018-05-06T03:27:44.426Z,49.30
2018-05-06T03:30:12.803Z,49.30
2018-05-06T03:32:41.058Z,49.20
2018-05-06T03:35:09.468Z,49.20
2018-05-06T03:37:37.705Z,49.20
2018-05-06T03:40:06.428Z,49.30
2018-05-06T03:42:34.872Z,49.10
2018-05-06T03:45:03.189Z,49.10
2018-05-06T03:47:31.625Z,49.20
2018-05-06T03:50:00.015Z,49.10
2018-05-06T03:52:28.357Z,49.10
2018-05-06T03:54:57.021Z,49.10
2018-05-06T03:57:38.037Z,49.10
2018-05-06T04:00:18.459Z,49.00
2018-05-06T04:02:46.783Z,49.00
2018-05-06T04:05:15.035Z,49.60
2018-05-06T04:07:43.478Z,49.10
2018-05-06T04:10:11.852Z,49.30
2018-05-06T04:12:40.261Z,49.00
2018-05-06T04:15:08.926Z,48.80
2018-05-06T04:17:37.375Z,48.70
2018-05-06T04:20:05.699Z,48.70
2018-05-06T04:22:34.147Z,48.60
2018-05-06T04:25:02.518Z,48.40
2018-05-06T04:27:30.898Z,48.40
2018-05-06T04:29:59.165Z,48.30
2018-05-06T04:32:28.246Z,48.30
2018-05-06T04:34:56.636Z,48.20
2018-05-06T04:37:25.266Z,48.20
2018-05-06T04:39:53.711Z,48.20
2018-05-06T04:42:22.063Z,48.40
2018-05-06T04:44:50.795Z,48.20
2018-05-06T04:47:19.443Z,48.20
2018-05-06T04:49:47.916Z,48.30
2018-05-06T04:52:16.186Z,48.20
2018-05-06T04:54:44.829Z,48.30
2018-05-06T04:57:13.575Z,48.20
2018-05-06T04:59:42.171Z,48.20
2018-05-06T05:02:10.583Z,48.00
2018-05-06T05:04:39.040Z,48.20
2018-05-06T05:07:07.393Z,48.30
2018-05-06T05:09:36.179Z,48.40
2018-05-06T05:12:04.485Z,47.90
2018-05-06T05:14:32.791Z,47.70
2018-05-06T05:17:01.045Z,48.20
2018-05-06T05:19:29.305Z,48.10
2018-05-06T05:21:57.802Z,48.60
2018-05-06T05:24:26.489Z,49.80
2018-05-06T05:26:54.761Z,50.30
2018-05-06T05:29:23.427Z,50.90
2018-05-06T05:31:52.166Z,51.20
2018-05-06T05:34:22.813Z,51.20
2018-05-06T05:36:51.071Z,51.00
2018-05-06T05:39:19.363Z,51.00
2018-05-06T05:41:50.075Z,50.90
2018-05-06T05:44:18.932Z,50.80
2018-05-06T05:46:47.194Z,50.80
2018-05-06T05:49:16.160Z,50.80
2018-05-06T05:51:44.506Z,50.70
2018-05-06T05:54:12.774Z,50.70
2018-05-06T05:56:42.171Z,50.80
2018-05-06T05:59:24.699Z,50.80
2018-05-06T06:01:56.153Z,50.70
2018-05-06T06:04:24.847Z,50.70
2018-05-06T06:06:57.067Z,50.70
2018-05-06T06:09:27.282Z,50.70
2018-05-06T06:11:56.618Z,50.80
2018-05-06T06:14:25.891Z,51.10
2018-05-06T06:16:54.222Z,51.10
2018-05-06T06:19:23.840Z,51.40
2018-05-06T06:21:52.291Z,51.40
2018-05-06T06:24:20.915Z,51.20
2018-05-06T06:26:49.574Z,51.10
2018-05-06T06:29:18.624Z,52.20
2018-05-06T06:31:47.041Z,51.90
2018-05-06T06:34:16.080Z,52.90
2018-05-06T06:36:44.349Z,52.90
2018-05-06T06:39:12.782Z,52.80
2018-05-06T06:41:41.146Z,53.10
2018-05-06T06:44:09.526Z,52.40
2018-05-06T06:46:37.931Z,52.60
2018-05-06T06:49:06.191Z,52.60
2018-05-06T06:51:34.598Z,50.80
2018-05-06T06:54:03.633Z,50.00
2018-05-06T06:56:31.905Z,50.00
2018-05-06T06:59:00.393Z,50.20
2018-05-06T07:01:28.773Z,52.20
2018-05-06T07:03:57.055Z,49.80
2018-05-06T07:06:25.580Z,50.00
2018-05-06T07:08:53.967Z,51.90
2018-05-06T07:11:22.355Z,52.20
2018-05-06T07:13:50.622Z,51.80
2018-05-06T07:16:19.034Z,51.50
2018-05-06T07:18:47.707Z,49.60
2018-05-06T07:21:17.002Z,48.50
2018-05-06T07:23:45.358Z,48.50
2018-05-06T07:26:13.835Z,48.70
2018-05-06T07:28:42.110Z,48.40
2018-05-06T07:31:10.823Z,48.90
2018-05-06T07:33:39.265Z,48.40
2018-05-06T07:36:07.557Z,49.40
2018-05-06T07:38:39.199Z,49.50
2018-05-06T07:41:07.474Z,49.60
2018-05-06T07:43:35.750Z,50.00
2018-05-06T07:46:04.230Z,50.20
2018-05-06T07:48:32.585Z,50.40
2018-05-06T07:51:00.850Z,51.00
2018-05-06T07:53:29.524Z,50.70
2018-05-06T07:55:57.830Z,50.80
2018-05-06T07:58:26.115Z,50.80
2018-05-06T08:00:54.433Z,51.10
2018-05-06T08:03:23.480Z,51.40
2018-05-06T08:05:51.746Z,51.40
2018-05-06T08:08:20.202Z,51.10
2018-05-06T08:10:48.659Z,51.10
2018-05-06T08:13:16.960Z,51.10
2018-05-06T08:15:45.378Z,51.30
2018-05-06T08:18:13.900Z,51.50
2018-05-06T08:20:42.362Z,51.80
2018-05-06T08:23:10.762Z,51.80
2018-05-06T08:25:39.209Z,51.40
2018-05-06T08:28:07.534Z,51.40
2018-05-06T08:30:36.872Z,51.50
2018-05-06T08:33:05.154Z,51.50
2018-05-06T08:35:33.674Z,51.10
2018-05-06T08:38:01.961Z,51.20
2018-05-06T08:40:30.646Z,51.20
2018-05-06T08:42:59.026Z,51.30
2018-05-06T08:45:27.504Z,51.20
2018-05-06T08:47:55.862Z,51.50
2018-05-06T08:50:24.531Z,51.70
2018-05-06T08:52:53.210Z,51.20
2018-05-06T08:55:21.619Z,53.70
2018-05-06T08:57:49.919Z,55.50
2018-05-06T09:00:18.387Z,54.30
2018-05-06T09:02:46.998Z,54.60
2018-05-06T09:05:16.047Z,53.60
2018-05-06T09:07:44.353Z,53.60
2018-05-06T09:10:12.736Z,54.30
2018-05-06T09:12:41.007Z,53.90
2018-05-06T09:15:09.541Z,54.20
2018-05-06T09:17:37.940Z,53.80
2018-05-06T09:20:06.264Z,54.90
2018-05-06T09:22:34.687Z,54.30
2018-05-06T09:25:02.998Z,53.90
2018-05-06T09:27:31.418Z,54.90
2018-05-06T09:29:59.878Z,55.00
2018-05-06T09:32:28.326Z,55.60
2018-05-06T09:34:56.882Z,54.80
2018-05-06T09:37:25.314Z,54.40
2018-05-06T09:39:54.519Z,52.80
2018-05-06T09:42:23.555Z,53.60
2018-05-06T09:44:51.994Z,53.60
2018-05-06T09:47:20.347Z,53.60
2018-05-06T09:49:48.622Z,53.90
2018-05-06T09:52:17.114Z,53.80
2018-05-06T09:54:45.471Z,54.70
2018-05-06T09:57:13.745Z,53.90
2018-05-06T09:59:42.149Z,54.60
2018-05-06T10:02:10.558Z,54.30
2018-05-06T10:04:38.834Z,55.10
2018-05-06T10:07:07.356Z,55.80
2018-05-06T10:09:35.985Z,49.60
2018-05-06T10:12:05.329Z,49.90
2018-05-06T10:14:33.731Z,49.80
2018-05-06T10:17:02.238Z,49.00
2018-05-06T10:19:30.499Z,49.10
2018-05-06T10:21:58.778Z,45.80
2018-05-06T10:24:27.041Z,46.30
2018-05-06T10:26:55.393Z,47.90
2018-05-06T10:29:23.665Z,50.00
2018-05-06T10:31:51.938Z,50.90
2018-05-06T10:34:20.207Z,51.90
2018-05-06T10:36:48.514Z,52.20
2018-05-06T10:39:16.893Z,54.70
2018-05-06T10:41:45.257Z,51.60
2018-05-06T10:44:13.590Z,53.80
2018-05-06T10:46:42.054Z,54.00
2018-05-06T10:49:10.483Z,53.60
2018-05-06T10:51:38.709Z,51.50
2018-05-06T10:54:07.171Z,52.90
2018-05-06T10:56:35.568Z,54.30
2018-05-06T10:59:03.834Z,56.30
2018-05-06T11:01:32.345Z,56.80
2018-05-06T11:04:01.626Z,55.90
2018-05-06T11:06:30.019Z,55.90
2018-05-06T11:08:58.273Z,54.70
2018-05-06T11:11:26.862Z,54.70
2018-05-06T11:13:55.134Z,54.50
2018-05-06T11:16:23.808Z,54.60
2018-05-06T11:18:52.220Z,54.40
2018-05-06T11:21:20.571Z,53.80
2018-05-06T11:23:48.949Z,53.60
2018-05-06T11:26:17.323Z,53.40
2018-05-06T11:28:45.497Z,53.40
2018-05-06T11:31:13.763Z,53.20
2018-05-06T11:33:42.104Z,53.20
2018-05-06T11:36:10.488Z,52.70
2018-05-06T11:38:38.934Z,52.50
2018-05-06T11:41:07.253Z,52.00
2018-05-06T11:43:35.984Z,51.70
2018-05-06T11:46:04.367Z,51.40
2018-05-06T11:48:32.700Z,51.20
2018-05-06T11:51:17.752Z,51.60
2018-05-06T11:54:00.272Z,50.80
2018-05-06T11:56:34.219Z,51.30
2018-05-06T11:59:03.879Z,51.00
2018-05-06T12:01:32.567Z,49.90
2018-05-06T12:04:00.829Z,51.10
2018-05-06T12:06:29.145Z,50.20
2018-05-06T12:08:58.306Z,51.20
2018-05-06T12:11:26.558Z,51.20
2018-05-06T12:13:54.923Z,51.20
2018-05-06T12:16:23.620Z,51.20
2018-05-06T12:18:52.008Z,50.50
2018-05-06T12:21:21.172Z,50.10
2018-05-06T12:23:49.437Z,47.50
2018-05-06T12:26:18.051Z,48.70
2018-05-06T12:28:47.342Z,47.80
2018-05-06T12:31:15.726Z,48.00
2018-05-06T12:33:44.019Z,47.40
2018-05-06T12:36:12.506Z,47.90
2018-05-06T12:38:40.810Z,48.40
2018-05-06T12:41:09.245Z,49.60
2018-05-06T12:43:37.520Z,50.60
2018-05-06T12:46:05.787Z,50.70
2018-05-06T12:48:34.088Z,50.30
2018-05-06T12:51:02.459Z,50.20
2018-05-06T12:53:31.447Z,50.10
2018-05-06T12:55:59.718Z,50.00
2018-05-06T12:58:28.235Z,50.00
2018-05-06T13:00:56.626Z,49.90
2018-05-06T13:03:24.986Z,49.90
2018-05-06T13:05:53.362Z,49.80
2018-05-06T13:08:21.623Z,49.60
2018-05-06T13:10:49.942Z,49.50
2018-05-06T13:13:18.478Z,49.70
2018-05-06T13:15:46.870Z,49.80
2018-05-06T13:18:15.290Z,50.10
2018-05-06T13:20:43.882Z,50.30
2018-05-06T13:23:12.610Z,50.20
2018-05-06T13:25:40.970Z,50.10
2018-05-06T13:28:09.271Z,50.10
2018-05-06T13:30:37.515Z,50.00
2018-05-06T13:33:05.835Z,50.10
2018-05-06T13:35:34.153Z,50.10
2018-05-06T13:38:02.820Z,50.10
2018-05-06T13:40:31.096Z,50.10
2018-05-06T13:42:59.646Z,50.10
2018-05-06T13:45:28.064Z,50.00
2018-05-06T13:47:56.350Z,50.20
2018-05-06T13:50:24.804Z,50.10
2018-05-06T13:52:53.237Z,49.40
2018-05-06T13:55:21.818Z,49.00
2018-05-06T13:57:50.086Z,48.20
2018-05-06T14:00:18.556Z,49.20
2018-05-06T14:02:47.015Z,49.70
2018-05-06T14:05:15.266Z,49.80
2018-05-06T14:07:43.746Z,49.90
2018-05-06T14:10:12.135Z,49.80
2018-05-06T14:12:40.497Z,49.80
2018-05-06T14:15:08.775Z,50.00
2018-05-06T14:17:37.262Z,49.90
2018-05-06T14:20:05.630Z,49.90
2018-05-06T14:22:34.025Z,49.90
2018-05-06T14:25:02.354Z,49.90
2018-05-06T14:27:31.398Z,49.90
2018-05-06T14:29:59.793Z,49.90
2018-05-06T14:32:28.119Z,49.70
2018-05-06T14:34:56.519Z,49.50
2018-05-06T14:37:24.909Z,49.60
2018-05-06T14:39:53.165Z,49.50
2018-05-06T14:42:21.673Z,49.70
2018-05-06T14:44:49.989Z,49.60
2018-05-06T14:47:30.253Z,49.60
2018-05-06T14:49:58.777Z,49.70
2018-05-06T14:52:27.181Z,49.60
2018-05-06T14:54:55.542Z,49.60
2018-05-06T14:57:23.914Z,49.60
2018-05-06T14:59:52.271Z,49.60
2018-05-06T15:02:20.683Z,49.70
2018-05-06T15:04:49.100Z,49.60
2018-05-06T15:07:17.458Z,49.60
2018-05-06T15:09:45.766Z,49.60
2018-05-06T15:12:14.212Z,49.60
2018-05-06T15:14:42.620Z,50.20
2018-05-06T15:17:10.959Z,49.50
2018-05-06T15:19:39.629Z,49.50
2018-05-06T15:22:08.015Z,49.50
2018-05-06T15:24:36.389Z,49.50
2018-05-06T15:27:04.663Z,49.40
2018-05-06T15:29:33.110Z,49.40
2018-05-06T15:32:01.542Z,49.30
2018-05-06T15:34:29.865Z,49.30
2018-05-06T15:36:58.594Z,49.30
2018-05-06T15:39:26.870Z,49.40
2018-05-06T15:41:55.967Z,49.70
2018-05-06T15:44:24.293Z,49.40
2018-05-06T15:46:52.737Z,49.40
2018-05-06T15:49:20.996Z,49.30
2018-05-06T15:51:49.461Z,49.30
2018-05-06T15:54:17.890Z,49.40
2018-05-06T15:56:46.275Z,52.20
2018-05-06T15:59:14.835Z,50.30
2018-05-06T16:01:43.606Z,50.40
2018-05-06T16:04:14.996Z,50.70
2018-05-06T16:06:43.255Z,49.80
2018-05-06T16:09:11.535Z,50.00
2018-05-06T16:11:39.789Z,50.50
2018-05-06T16:14:08.601Z,51.40
2018-05-06T16:16:37.278Z,51.60
2018-05-06T16:19:05.538Z,52.00
2018-05-06T16:21:33.991Z,52.20
2018-05-06T16:24:02.418Z,52.40
2018-05-06T16:26:30.777Z,52.90
2018-05-06T16:28:58.993Z,51.90
2018-05-06T16:31:27.255Z,51.80
2018-05-06T16:33:55.540Z,51.60
2018-05-06T16:36:23.802Z,51.90
2018-05-06T16:38:52.069Z,51.60
2018-05-06T16:41:20.452Z,51.70
2018-05-06T16:43:49.009Z,51.80
2018-05-06T16:46:17.502Z,51.90
2018-05-06T16:48:45.891Z,52.00
2018-05-06T16:51:14.267Z,52.20
2018-05-06T16:53:42.535Z,52.20
2018-05-06T16:56:10.823Z,52.10
2018-05-06T16:58:39.241Z,52.00
2018-05-06T17:01:07.477Z,52.20
2018-05-06T17:03:35.870Z,52.00
2018-05-06T17:06:04.249Z,52.10
2018-05-06T17:08:32.531Z,51.80
2018-05-06T17:11:01.279Z,51.60
2018-05-06T17:13:29.707Z,51.70
2018-05-06T17:15:58.122Z,51.50
2018-05-06T17:18:26.406Z,51.10
2018-05-06T17:20:55.429Z,50.90
2018-05-06T17:23:23.851Z,50.90
2018-05-06T17:25:52.190Z,50.80
2018-05-06T17:28:20.586Z,50.60
2018-05-06T17:30:48.873Z,50.60
2018-05-06T17:33:17.630Z,50.30
2018-05-06T17:35:59.111Z,50.20
2018-05-06T17:38:28.029Z,50.20
2018-05-06T17:40:56.564Z,50.20
2018-05-06T17:43:28.437Z,50.10
2018-05-06T17:45:56.731Z,50.50
2018-05-06T17:48:25.104Z,50.50
2018-05-06T17:50:53.639Z,50.80
2018-05-06T17:53:22.203Z,51.10
2018-05-06T17:55:50.508Z,50.50
2018-05-06T17:58:19.862Z,50.30
2018-05-06T18:00:48.177Z,50.30
2018-05-06T18:03:16.447Z,50.30
2018-05-06T18:05:45.024Z,50.30
2018-05-06T18:08:13.422Z,50.20
2018-05-06T18:10:41.697Z,50.30
2018-05-06T18:13:10.444Z,50.90
2018-05-06T18:15:39.126Z,52.20
2018-05-06T18:18:07.422Z,52.90
2018-05-06T18:20:35.716Z,53.30
2018-05-06T18:23:04.210Z,54.50
2018-05-06T18:25:32.706Z,54.80
2018-05-06T18:28:00.999Z,53.80
2018-05-06T18:30:29.398Z,53.10
2018-05-06T18:32:58.482Z,53.10
2018-05-06T18:35:26.764Z,52.70
2018-05-06T18:37:55.153Z,53.00
2018-05-06T18:40:23.465Z,50.60
2018-05-06T18:42:51.831Z,51.70
2018-05-06T18:45:20.130Z,52.20
2018-05-06T18:47:48.396Z,52.30
2018-05-06T18:50:16.759Z,52.70
2018-05-06T18:52:45.122Z,52.90
2018-05-06T18:55:13.570Z,52.20
2018-05-06T18:57:41.866Z,52.50
2018-05-06T19:00:10.310Z,52.50
2018-05-06T19:02:38.588Z,52.80
2018-05-06T19:05:07.626Z,52.30
2018-05-06T19:07:35.962Z,52.20
2018-05-06T19:10:05.001Z,52.70
2018-05-06T19:12:33.728Z,52.50
2018-05-06T19:15:02.212Z,52.40
2018-05-06T19:17:30.509Z,52.30
2018-05-06T19:19:58.834Z,52.10
2018-05-06T19:22:27.159Z,52.00
2018-05-06T19:24:56.206Z,51.90
2018-05-06T19:27:24.525Z,51.90
2018-05-06T19:29:52.988Z,51.80
2018-05-06T19:32:22.034Z,52.10
2018-05-06T19:34:50.643Z,52.10
2018-05-06T19:37:19.274Z,51.20
2018-05-06T19:39:47.736Z,49.00
2018-05-06T19:42:16.091Z,49.10
2018-05-06T19:44:44.491Z,48.30
2018-05-06T19:47:12.818Z,50.10
2018-05-06T19:49:41.111Z,51.00
2018-05-06T19:52:09.622Z,51.20
2018-05-06T19:54:38.018Z,51.30
2018-05-06T19:57:07.910Z,51.20
2018-05-06T19:59:36.214Z,51.30
2018-05-06T20:02:04.478Z,51.30
2018-05-06T20:04:32.755Z,51.90
2018-05-06T20:07:01.799Z,51.10
2018-05-06T20:09:30.114Z,51.10
2018-05-06T20:11:58.472Z,51.10
2018-05-06T20:14:26.760Z,51.20
2018-05-06T20:16:55.064Z,51.20
2018-05-06T20:19:23.342Z,51.00
2018-05-06T20:21:51.954Z,50.90
2018-05-06T20:24:20.380Z,50.80
2018-05-06T20:26:48.787Z,50.80
2018-05-06T20:29:17.102Z,51.70
2018-05-06T20:31:45.457Z,51.00
2018-05-06T20:34:14.494Z,50.80
2018-05-06T20:36:42.833Z,51.00
2018-05-06T20:39:11.869Z,50.80
2018-05-06T20:41:40.518Z,50.80
2018-05-06T20:44:09.863Z,50.80
2018-05-06T20:46:38.173Z,50.70
2018-05-06T20:49:06.624Z,50.60
2018-05-06T20:51:34.923Z,50.70
2018-05-06T20:54:03.639Z,50.90
2018-05-06T20:56:32.718Z,51.10
2018-05-06T20:59:00.978Z,51.10
2018-05-06T21:01:29.267Z,50.90
2018-05-06T21:03:57.921Z,51.00
2018-05-06T21:06:26.194Z,51.00
2018-05-06T21:08:54.818Z,51.10
2018-05-06T21:11:23.262Z,51.00
2018-05-06T21:13:51.922Z,50.90
2018-05-06T21:16:20.297Z,51.10
2018-05-06T21:18:49.329Z,51.10
2018-05-06T21:21:17.729Z,51.00
2018-05-06T21:23:46.026Z,51.00
2018-05-06T21:26:14.308Z,51.00
2018-05-06T21:28:42.782Z,51.10
2018-05-06T21:31:11.258Z,51.10
2018-05-06T21:33:39.527Z,51.30
2018-05-06T21:36:07.816Z,51.80
2018-05-06T21:38:36.070Z,51.20
2018-05-06T21:41:04.404Z,51.30
2018-05-06T21:43:32.852Z,51.60
2018-05-06T21:46:01.086Z,51.40
2018-05-06T21:48:29.348Z,51.30
2018-05-06T21:50:57.661Z,51.40
2018-05-06T21:53:25.959Z,51.30
2018-05-06T21:55:55.008Z,51.00
2018-05-06T21:58:24.618Z,51.00
2018-05-06T22:00:53.013Z,50.90
2018-05-06T22:03:21.419Z,50.90
2018-05-06T22:05:49.762Z,50.90
2018-05-06T22:08:18.438Z,50.90
2018-05-06T22:10:46.856Z,50.90
2018-05-06T22:13:15.142Z,51.00
2018-05-06T22:15:43.821Z,51.10
2018-05-06T22:18:12.577Z,51.20
2018-05-06T22:20:40.990Z,51.30
2018-05-06T22:23:09.340Z,51.30
2018-05-06T22:25:37.690Z,51.20
2018-05-06T22:28:06.018Z,51.30
2018-05-06T22:30:34.486Z,51.30
2018-05-06T22:33:02.855Z,51.30
2018-05-06T22:35:31.186Z,51.30
2018-05-06T22:38:00.223Z,51.30
2018-05-06T22:40:28.527Z,51.20
2018-05-06T22:42:57.757Z,51.20
2018-05-06T22:45:26.252Z,51.20
2018-05-06T22:47:54.595Z,51.20
2018-05-06T22:50:22.975Z,51.90
2018-05-06T22:52:51.406Z,51.10
2018-05-06T22:55:19.739Z,51.10
2018-05-06T22:57:48.194Z,51.10
2018-05-06T23:00:16.485Z,51.10
2018-05-06T23:02:44.959Z,51.10
2018-05-06T23:05:13.313Z,51.10
2018-05-06T23:07:41.925Z,51.10
2018-05-06T23:10:10.390Z,51.10
2018-05-06T23:12:38.694Z,51.10
2018-05-06T23:15:07.551Z,51.10
2018-05-06T23:17:35.816Z,51.10
2018-05-06T23:20:04.210Z,51.10
2018-05-06T23:22:32.597Z,51.00
2018-05-06T23:25:00.888Z,51.00
2018-05-06T23:27:29.175Z,51.00
2018-05-06T23:29:57.587Z,51.10
2018-05-06T23:32:25.807Z,51.00
2018-05-06T23:34:54.091Z,51.00
2018-05-06T23:37:22.554Z,51.10
2018-05-06T23:39:50.900Z,51.10
2018-05-06T23:42:19.349Z,51.10
2018-05-06T23:44:47.626Z,51.00
2018-05-06T23:47:16.074Z,51.00
2018-05-06T23:49:44.828Z,51.00
2018-05-06T23:52:13.126Z,50.90
2018-05-06T23:54:41.562Z,50.90
2018-05-06T23:57:09.908Z,51.00
2018-05-06T23:59:38.270Z,51.00
